TN13 weather

CLOSED Barret Airport
Barretville, Tennessee, United States

Public forecast

Using degrees Fahrenheit for public forecast. Weather courtesy of forecast.io.

Closest aviation weather report (METAR) to Barret Airport

Closest report is Millington-Memphis Airport, 5.2 nm (9.6 km) WSW. Retrieved 2020/02/22 21:50 UTC (45 minutes ago):

KNQA 222150Z 23004KT 10SM CLR 11/M06 A3033

Closest aviation forecast (TAF) to Barret Airport

Closest forecast is Memphis International Airport, 22.5 nm (41.6 km) SSW. Retrieved 2020/02/22 18:22 UTC (4 hours ago):

TAF KMEM 221720Z 2218/2324 20007KT P6SM FEW250 FM230100 18004KT P6SM SCT250 FM231000 17005KT P6SM BKN080 FM231600 18008KT P6SM VCSH OVC060